KHDE/HDE METAR and TAF weather

Enter ICAO airport designator
Station Type Date Time Source
KHDE METAR 2019/10/21 04:55 UTC NOAA

KHDE 210455Z AUTO 28015G22KT 10SM OVC030 07/02 A2955 RMK AO2 T00700022


Station Type Date Time Source
KHDE Decoded METAR 2019/10/21 04:55 UTC NOAA

Brewster Field Airport, NE, United States (KHDE) 40-27N 099-20W
Oct 21, 2019 - 12:55 AM EDT / 2019.10.21 0455 UTC
Wind: from the W (280 degrees) at 17 MPH (15 KT) gusting to 25 MPH (22 KT):0
Visibility: 10 mile(s):0
Sky conditions: overcast
Temperature: 44.6 F (7.0 C)
Dew Point: 36.0 F (2.2 C)
Relative Humidity: 71%
Pressure (altimeter): 29.55 in. Hg (1000 hPa)
ob: KHDE 210455Z AUTO 28015G22KT 10SM OVC030 07/02 A2955 RMK AO2 T00700022
cycle: 5

Station Type Date Time Source
KHDE TAF UTC NOAA

Error!

Example: see airport list